sensor_id;sensor_type;location;lat;lon;timestamp;P1;durP1;ratioP1;P2;durP2;ratioP2
17592;SDS011;8915;51.760;14.300;2023-08-21T00:00:11;3.13;;;2.60;;
17592;SDS011;8915;51.760;14.300;2023-08-21T00:02:38;3.13;;;2.58;;
17592;SDS011;8915;51.760;14.300;2023-08-21T00:05:05;3.80;;;2.50;;
17592;SDS011;8915;51.760;14.300;2023-08-21T00:07:32;4.95;;;3.22;;
17592;SDS011;8915;51.760;14.300;2023-08-21T00:09:58;4.32;;;2.72;;
17592;SDS011;8915;51.760;14.300;2023-08-21T00:12:24;3.15;;;2.85;;
17592;SDS011;8915;51.760;14.300;2023-08-21T00:14:50;4.63;;;2.88;;
17592;SDS011;8915;51.760;14.300;2023-08-21T00:17:18;3.78;;;3.10;;
17592;SDS011;8915;51.760;14.300;2023-08-21T00:19:44;3.50;;;2.80;;
17592;SDS011;8915;51.760;14.300;2023-08-21T00:22:11;4.78;;;3.42;;
17592;SDS011;8915;51.760;14.300;2023-08-21T00:24:37;3.33;;;2.88;;
17592;SDS011;8915;51.760;14.300;2023-08-21T00:27:03;5.88;;;3.00;;
17592;SDS011;8915;51.760;14.300;2023-08-21T00:29:31;5.30;;;3.78;;
17592;SDS011;8915;51.760;14.300;2023-08-21T00:31:57;4.07;;;3.57;;
17592;SDS011;8915;51.760;14.300;2023-08-21T00:34:25;4.73;;;3.57;;
17592;SDS011;8915;51.760;14.300;2023-08-21T00:36:51;4.88;;;3.17;;
17592;SDS011;8915;51.760;14.300;2023-08-21T00:39:18;3.73;;;3.33;;
17592;SDS011;8915;51.760;14.300;2023-08-21T00:41:44;3.95;;;3.15;;
17592;SDS011;8915;51.760;14.300;2023-08-21T00:44:11;5.95;;;3.47;;
17592;SDS011;8915;51.760;14.300;2023-08-21T00:46:37;4.90;;;3.50;;
17592;SDS011;8915;51.760;14.300;2023-08-21T00:49:03;4.32;;;3.92;;
17592;SDS011;8915;51.760;14.300;2023-08-21T00:51:32;5.63;;;4.78;;
17592;SDS011;8915;51.760;14.300;2023-08-21T00:53:58;9.20;;;6.70;;
17592;SDS011;8915;51.760;14.300;2023-08-21T00:56:25;9.53;;;6.87;;
17592;SDS011;8915;51.760;14.300;2023-08-21T00:58:52;10.25;;;8.45;;
17592;SDS011;8915;51.760;14.300;2023-08-21T01:01:19;9.63;;;8.20;;
17592;SDS011;8915;51.760;14.300;2023-08-21T01:03:51;12.30;;;9.13;;
17592;SDS011;8915;51.760;14.300;2023-08-21T01:06:18;10.65;;;9.25;;
17592;SDS011;8915;51.760;14.300;2023-08-21T01:08:55;11.73;;;9.52;;
17592;SDS011;8915;51.760;14.300;2023-08-21T01:11:26;11.10;;;9.18;;
17592;SDS011;8915;51.760;14.300;2023-08-21T01:14:03;11.85;;;10.13;;
17592;SDS011;8915;51.760;14.300;2023-08-21T01:16:37;12.05;;;9.82;;
17592;SDS011;8915;51.760;14.300;2023-08-21T01:19:03;9.77;;;8.27;;
17592;SDS011;8915;51.760;14.300;2023-08-21T01:21:36;8.40;;;7.57;;
17592;SDS011;8915;51.760;14.300;2023-08-21T01:24:04;8.50;;;6.43;;
17592;SDS011;8915;51.760;14.300;2023-08-21T01:26:30;8.73;;;7.20;;
17592;SDS011;8915;51.760;14.300;2023-08-21T01:28:56;7.57;;;6.72;;
17592;SDS011;8915;51.760;14.300;2023-08-21T01:31:24;7.32;;;6.43;;
17592;SDS011;8915;51.760;14.300;2023-08-21T01:33:55;6.88;;;6.18;;
17592;SDS011;8915;51.760;14.300;2023-08-21T01:36:28;9.95;;;6.55;;
17592;SDS011;8915;51.760;14.300;2023-08-21T01:38:54;7.97;;;7.10;;
17592;SDS011;8915;51.760;14.300;2023-08-21T01:41:24;7.85;;;5.95;;
17592;SDS011;8915;51.760;14.300;2023-08-21T01:43:50;6.88;;;6.20;;
17592;SDS011;8915;51.760;14.300;2023-08-21T01:46:17;7.87;;;6.57;;
17592;SDS011;8915;51.760;14.300;2023-08-21T01:48:43;8.33;;;6.90;;
17592;SDS011;8915;51.760;14.300;2023-08-21T01:51:09;7.73;;;6.33;;
17592;SDS011;8915;51.760;14.300;2023-08-21T01:53:36;7.93;;;6.90;;
17592;SDS011;8915;51.760;14.300;2023-08-21T01:56:03;8.95;;;7.18;;
17592;SDS011;8915;51.760;14.300;2023-08-21T01:58:32;8.73;;;7.60;;
17592;SDS011;8915;51.760;14.300;2023-08-21T02:00:59;8.18;;;7.28;;
17592;SDS011;8915;51.760;14.300;2023-08-21T02:03:25;9.18;;;6.85;;
17592;SDS011;8915;51.760;14.300;2023-08-21T02:05:55;8.32;;;7.45;;
17592;SDS011;8915;51.760;14.300;2023-08-21T02:08:22;12.38;;;7.30;;
17592;SDS011;8915;51.760;14.300;2023-08-21T02:10:49;8.73;;;7.38;;
17592;SDS011;8915;51.760;14.300;2023-08-21T02:13:15;8.55;;;7.43;;
17592;SDS011;8915;51.760;14.300;2023-08-21T02:15:43;8.35;;;7.35;;
17592;SDS011;8915;51.760;14.300;2023-08-21T02:18:10;10.32;;;6.90;;
17592;SDS011;8915;51.760;14.300;2023-08-21T02:20:37;10.50;;;6.90;;
17592;SDS011;8915;51.760;14.300;2023-08-21T02:23:04;9.10;;;7.17;;
17592;SDS011;8915;51.760;14.300;2023-08-21T02:25:31;9.13;;;7.10;;
17592;SDS011;8915;51.760;14.300;2023-08-21T02:27:57;7.95;;;6.57;;
17592;SDS011;8915;51.760;14.300;2023-08-21T02:30:24;7.57;;;6.10;;
17592;SDS011;8915;51.760;14.300;2023-08-21T02:32:52;8.38;;;6.55;;
17592;SDS011;8915;51.760;14.300;2023-08-21T02:35:18;9.10;;;6.55;;
17592;SDS011;8915;51.760;14.300;2023-08-21T02:37:44;9.77;;;6.80;;
17592;SDS011;8915;51.760;14.300;2023-08-21T02:40:11;8.93;;;6.10;;
17592;SDS011;8915;51.760;14.300;2023-08-21T02:42:37;8.17;;;6.13;;
17592;SDS011;8915;51.760;14.300;2023-08-21T02:45:04;7.87;;;6.03;;
17592;SDS011;8915;51.760;14.300;2023-08-21T02:47:34;8.10;;;5.70;;
17592;SDS011;8915;51.760;14.300;2023-08-21T02:50:03;7.93;;;6.23;;
17592;SDS011;8915;51.760;14.300;2023-08-21T02:52:30;7.50;;;5.80;;
17592;SDS011;8915;51.760;14.300;2023-08-21T02:54:57;7.67;;;5.73;;
17592;SDS011;8915;51.760;14.300;2023-08-21T02:57:23;9.23;;;5.80;;
17592;SDS011;8915;51.760;14.300;2023-08-21T02:59:50;9.20;;;5.93;;
17592;SDS011;8915;51.760;14.300;2023-08-21T03:02:17;6.97;;;5.33;;
17592;SDS011;8915;51.760;14.300;2023-08-21T03:04:43;7.53;;;5.60;;
17592;SDS011;8915;51.760;14.300;2023-08-21T03:07:11;7.03;;;5.50;;
17592;SDS011;8915;51.760;14.300;2023-08-21T03:09:38;7.90;;;6.07;;
17592;SDS011;8915;51.760;14.300;2023-08-21T03:12:05;7.00;;;5.17;;
17592;SDS011;8915;51.760;14.300;2023-08-21T03:14:33;8.07;;;6.13;;
17592;SDS011;8915;51.760;14.300;2023-08-21T03:16:59;8.23;;;5.67;;
17592;SDS011;8915;51.760;14.300;2023-08-21T03:19:26;8.77;;;6.10;;
17592;SDS011;8915;51.760;14.300;2023-08-21T03:21:52;7.33;;;6.00;;
17592;SDS011;8915;51.760;14.300;2023-08-21T03:24:20;6.97;;;5.57;;
17592;SDS011;8915;51.760;14.300;2023-08-21T03:26:47;6.90;;;6.03;;
17592;SDS011;8915;51.760;14.300;2023-08-21T03:29:14;6.90;;;6.00;;
17592;SDS011;8915;51.760;14.300;2023-08-21T03:31:40;7.47;;;6.07;;
17592;SDS011;8915;51.760;14.300;2023-08-21T03:34:07;7.67;;;6.43;;
17592;SDS011;8915;51.760;14.300;2023-08-21T03:36:35;8.23;;;6.63;;
17592;SDS011;8915;51.760;14.300;2023-08-21T03:39:03;7.80;;;6.53;;
17592;SDS011;8915;51.760;14.300;2023-08-21T03:41:34;11.17;;;7.20;;
17592;SDS011;8915;51.760;14.300;2023-08-21T03:44:00;9.43;;;7.20;;
17592;SDS011;8915;51.760;14.300;2023-08-21T03:46:27;8.67;;;6.83;;
17592;SDS011;8915;51.760;14.300;2023-08-21T03:48:54;8.83;;;6.53;;
17592;SDS011;8915;51.760;14.300;2023-08-21T03:51:21;7.87;;;6.50;;
17592;SDS011;8915;51.760;14.300;2023-08-21T03:53:47;8.47;;;7.13;;
17592;SDS011;8915;51.760;14.300;2023-08-21T03:56:13;8.50;;;7.37;;
17592;SDS011;8915;51.760;14.300;2023-08-21T03:58:41;8.97;;;7.10;;
17592;SDS011;8915;51.760;14.300;2023-08-21T04:01:07;10.60;;;6.90;;
17592;SDS011;8915;51.760;14.300;2023-08-21T04:03:34;9.73;;;7.50;;
17592;SDS011;8915;51.760;14.300;2023-08-21T04:06:01;8.77;;;7.27;;
17592;SDS011;8915;51.760;14.300;2023-08-21T04:08:27;10.27;;;7.33;;
17592;SDS011;8915;51.760;14.300;2023-08-21T04:10:54;9.00;;;7.37;;
17592;SDS011;8915;51.760;14.300;2023-08-21T04:13:24;9.20;;;6.77;;
17592;SDS011;8915;51.760;14.300;2023-08-21T04:15:53;8.57;;;6.80;;
17592;SDS011;8915;51.760;14.300;2023-08-21T04:18:21;8.67;;;7.20;;
17592;SDS011;8915;51.760;14.300;2023-08-21T04:20:47;8.30;;;7.33;;
17592;SDS011;8915;51.760;14.300;2023-08-21T04:23:14;7.97;;;7.03;;
17592;SDS011;8915;51.760;14.300;2023-08-21T04:25:40;8.10;;;7.30;;
17592;SDS011;8915;51.760;14.300;2023-08-21T04:28:06;8.63;;;7.60;;
17592;SDS011;8915;51.760;14.300;2023-08-21T04:30:33;10.67;;;7.70;;
17592;SDS011;8915;51.760;14.300;2023-08-21T04:33:01;8.63;;;7.50;;
17592;SDS011;8915;51.760;14.300;2023-08-21T04:35:28;9.47;;;7.87;;
17592;SDS011;8915;51.760;14.300;2023-08-21T04:37:55;9.77;;;7.50;;
17592;SDS011;8915;51.760;14.300;2023-08-21T04:40:23;12.13;;;7.63;;
17592;SDS011;8915;51.760;14.300;2023-08-21T04:42:51;9.87;;;8.03;;
17592;SDS011;8915;51.760;14.300;2023-08-21T04:45:19;10.13;;;7.50;;
17592;SDS011;8915;51.760;14.300;2023-08-21T04:47:46;10.20;;;7.90;;
17592;SDS011;8915;51.760;14.300;2023-08-21T04:50:14;9.40;;;8.00;;
17592;SDS011;8915;51.760;14.300;2023-08-21T04:52:40;14.00;;;7.87;;
17592;SDS011;8915;51.760;14.300;2023-08-21T04:55:08;11.17;;;7.53;;
17592;SDS011;8915;51.760;14.300;2023-08-21T04:57:36;11.03;;;7.73;;
17592;SDS011;8915;51.760;14.300;2023-08-21T05:00:06;13.73;;;7.68;;
17592;SDS011;8915;51.760;14.300;2023-08-21T05:02:37;13.57;;;8.40;;
17592;SDS011;8915;51.760;14.300;2023-08-21T05:05:05;9.70;;;7.93;;
17592;SDS011;8915;51.760;14.300;2023-08-21T05:07:35;9.95;;;8.40;;
17592;SDS011;8915;51.760;14.300;2023-08-21T05:10:01;9.70;;;7.90;;
17592;SDS011;8915;51.760;14.300;2023-08-21T05:12:31;8.65;;;7.25;;
17592;SDS011;8915;51.760;14.300;2023-08-21T05:14:58;9.80;;;8.27;;
17592;SDS011;8915;51.760;14.300;2023-08-21T05:17:25;9.45;;;8.40;;
17592;SDS011;8915;51.760;14.300;2023-08-21T05:19:51;9.98;;;8.15;;
17592;SDS011;8915;51.760;14.300;2023-08-21T05:22:18;9.85;;;8.32;;
17592;SDS011;8915;51.760;14.300;2023-08-21T05:24:47;10.02;;;8.05;;
17592;SDS011;8915;51.760;14.300;2023-08-21T05:27:14;7.85;;;7.05;;
17592;SDS011;8915;51.760;14.300;2023-08-21T05:29:40;8.68;;;7.78;;
17592;SDS011;8915;51.760;14.300;2023-08-21T05:32:07;15.70;;;7.25;;
17592;SDS011;8915;51.760;14.300;2023-08-21T05:34:34;9.05;;;8.05;;
17592;SDS011;8915;51.760;14.300;2023-08-21T05:37:00;9.15;;;7.85;;
17592;SDS011;8915;51.760;14.300;2023-08-21T05:39:27;10.13;;;7.40;;
17592;SDS011;8915;51.760;14.300;2023-08-21T05:41:55;9.57;;;7.30;;
17592;SDS011;8915;51.760;14.300;2023-08-21T05:44:23;8.93;;;7.45;;
17592;SDS011;8915;51.760;14.300;2023-08-21T05:46:50;11.18;;;7.78;;
17592;SDS011;8915;51.760;14.300;2023-08-21T05:49:17;12.27;;;8.63;;
17592;SDS011;8915;51.760;14.300;2023-08-21T05:51:43;9.15;;;7.20;;
17592;SDS011;8915;51.760;14.300;2023-08-21T05:54:10;11.25;;;7.75;;
17592;SDS011;8915;51.760;14.300;2023-08-21T05:56:38;9.70;;;8.00;;
17592;SDS011;8915;51.760;14.300;2023-08-21T05:59:09;8.35;;;6.93;;
17592;SDS011;8915;51.760;14.300;2023-08-21T06:01:36;12.65;;;7.82;;
17592;SDS011;8915;51.760;14.300;2023-08-21T06:04:02;9.85;;;7.50;;
17592;SDS011;8915;51.760;14.300;2023-08-21T06:06:41;8.27;;;7.13;;
17592;SDS011;8915;51.760;14.300;2023-08-21T06:09:07;9.68;;;8.38;;
17592;SDS011;8915;51.760;14.300;2023-08-21T06:11:34;9.88;;;7.95;;
17592;SDS011;8915;51.760;14.300;2023-08-21T06:14:00;9.40;;;7.88;;
17592;SDS011;8915;51.760;14.300;2023-08-21T06:16:28;8.55;;;7.55;;
17592;SDS011;8915;51.760;14.300;2023-08-21T06:18:54;16.02;;;7.53;;
17592;SDS011;8915;51.760;14.300;2023-08-21T06:21:21;10.00;;;7.45;;
17592;SDS011;8915;51.760;14.300;2023-08-21T06:23:47;10.63;;;7.95;;
17592;SDS011;8915;51.760;14.300;2023-08-21T06:26:14;9.32;;;8.30;;
17592;SDS011;8915;51.760;14.300;2023-08-21T06:28:40;11.63;;;7.22;;
17592;SDS011;8915;51.760;14.300;2023-08-21T06:31:08;10.07;;;8.00;;
17592;SDS011;8915;51.760;14.300;2023-08-21T06:33:37;14.60;;;8.57;;
17592;SDS011;8915;51.760;14.300;2023-08-21T06:36:04;9.65;;;7.38;;
17592;SDS011;8915;51.760;14.300;2023-08-21T06:38:30;12.05;;;7.43;;
17592;SDS011;8915;51.760;14.300;2023-08-21T06:40:58;10.32;;;7.47;;
17592;SDS011;8915;51.760;14.300;2023-08-21T06:43:24;9.07;;;7.55;;
17592;SDS011;8915;51.760;14.300;2023-08-21T06:45:53;7.95;;;6.63;;
17592;SDS011;8915;51.760;14.300;2023-08-21T06:48:20;8.50;;;7.13;;
17592;SDS011;8915;51.760;14.300;2023-08-21T06:50:48;9.90;;;7.03;;
17592;SDS011;8915;51.760;14.300;2023-08-21T06:53:14;8.35;;;6.72;;
17592;SDS011;8915;51.760;14.300;2023-08-21T06:55:40;9.27;;;7.07;;
17592;SDS011;8915;51.760;14.300;2023-08-21T06:58:07;9.27;;;6.75;;
17592;SDS011;8915;51.760;14.300;2023-08-21T07:00:33;7.22;;;6.18;;
17592;SDS011;8915;51.760;14.300;2023-08-21T07:02:59;6.95;;;5.97;;
17592;SDS011;8915;51.760;14.300;2023-08-21T07:05:26;6.80;;;5.97;;
17592;SDS011;8915;51.760;14.300;2023-08-21T07:07:53;6.28;;;5.53;;
17592;SDS011;8915;51.760;14.300;2023-08-21T07:10:20;7.90;;;6.07;;
17592;SDS011;8915;51.760;14.300;2023-08-21T07:12:46;7.10;;;6.40;;
17592;SDS011;8915;51.760;14.300;2023-08-21T07:15:13;8.90;;;5.90;;
17592;SDS011;8915;51.760;14.300;2023-08-21T07:17:40;8.38;;;6.10;;
17592;SDS011;8915;51.760;14.300;2023-08-21T07:20:07;7.00;;;6.30;;
17592;SDS011;8915;51.760;14.300;2023-08-21T07:22:34;7.93;;;6.65;;
17592;SDS011;8915;51.760;14.300;2023-08-21T07:25:01;7.18;;;6.47;;
17592;SDS011;8915;51.760;14.300;2023-08-21T07:27:29;8.27;;;6.85;;
17592;SDS011;8915;51.760;14.300;2023-08-21T07:29:56;7.95;;;6.07;;
17592;SDS011;8915;51.760;14.300;2023-08-21T07:32:22;7.35;;;6.65;;
17592;SDS011;8915;51.760;14.300;2023-08-21T07:34:51;7.75;;;6.78;;
17592;SDS011;8915;51.760;14.300;2023-08-21T07:37:18;6.95;;;6.25;;
17592;SDS011;8915;51.760;14.300;2023-08-21T07:39:44;8.43;;;7.30;;
17592;SDS011;8915;51.760;14.300;2023-08-21T07:42:12;10.05;;;7.70;;
17592;SDS011;8915;51.760;14.300;2023-08-21T07:44:38;7.78;;;6.70;;
17592;SDS011;8915;51.760;14.300;2023-08-21T07:47:05;7.38;;;6.32;;
17592;SDS011;8915;51.760;14.300;2023-08-21T07:49:32;6.82;;;6.15;;
17592;SDS011;8915;51.760;14.300;2023-08-21T07:51:58;8.00;;;6.53;;
17592;SDS011;8915;51.760;14.300;2023-08-21T07:54:25;9.45;;;6.97;;
17592;SDS011;8915;51.760;14.300;2023-08-21T07:56:51;6.65;;;5.70;;
17592;SDS011;8915;51.760;14.300;2023-08-21T07:59:19;6.93;;;5.90;;
17592;SDS011;8915;51.760;14.300;2023-08-21T08:01:45;7.75;;;6.38;;
17592;SDS011;8915;51.760;14.300;2023-08-21T08:04:12;6.75;;;6.00;;
17592;SDS011;8915;51.760;14.300;2023-08-21T08:06:38;6.40;;;5.60;;
17592;SDS011;8915;51.760;14.300;2023-08-21T08:09:05;6.25;;;5.28;;
17592;SDS011;8915;51.760;14.300;2023-08-21T08:11:31;7.03;;;5.38;;
17592;SDS011;8915;51.760;14.300;2023-08-21T08:13:58;6.57;;;5.72;;
17592;SDS011;8915;51.760;14.300;2023-08-21T08:16:26;6.20;;;5.47;;
17592;SDS011;8915;51.760;14.300;2023-08-21T08:18:52;6.22;;;5.63;;
17592;SDS011;8915;51.760;14.300;2023-08-21T08:21:19;5.88;;;4.97;;
17592;SDS011;8915;51.760;14.300;2023-08-21T08:23:45;4.85;;;4.45;;
17592;SDS011;8915;51.760;14.300;2023-08-21T08:26:11;7.10;;;5.05;;
17592;SDS011;8915;51.760;14.300;2023-08-21T08:28:39;6.45;;;4.75;;
17592;SDS011;8915;51.760;14.300;2023-08-21T08:31:05;6.20;;;5.35;;
17592;SDS011;8915;51.760;14.300;2023-08-21T08:33:33;7.07;;;5.15;;
17592;SDS011;8915;51.760;14.300;2023-08-21T08:35:59;5.30;;;4.80;;
17592;SDS011;8915;51.760;14.300;2023-08-21T08:38:25;5.85;;;5.25;;
17592;SDS011;8915;51.760;14.300;2023-08-21T08:40:51;5.25;;;4.60;;
17592;SDS011;8915;51.760;14.300;2023-08-21T08:43:20;7.88;;;5.13;;
17592;SDS011;8915;51.760;14.300;2023-08-21T08:45:48;5.47;;;4.93;;
17592;SDS011;8915;51.760;14.300;2023-08-21T08:48:16;5.80;;;4.95;;
17592;SDS011;8915;51.760;14.300;2023-08-21T08:50:46;9.10;;;5.20;;
17592;SDS011;8915;51.760;14.300;2023-08-21T08:53:15;6.03;;;5.38;;
17592;SDS011;8915;51.760;14.300;2023-08-21T08:55:44;5.95;;;4.75;;
17592;SDS011;8915;51.760;14.300;2023-08-21T08:58:11;5.03;;;4.53;;
17592;SDS011;8915;51.760;14.300;2023-08-21T09:00:37;5.82;;;5.00;;
17592;SDS011;8915;51.760;14.300;2023-08-21T09:03:03;5.45;;;4.72;;
17592;SDS011;8915;51.760;14.300;2023-08-21T09:05:30;5.57;;;5.07;;
17592;SDS011;8915;51.760;14.300;2023-08-21T09:08:09;6.03;;;5.43;;
17592;SDS011;8915;51.760;14.300;2023-08-21T09:10:36;7.22;;;5.78;;
17592;SDS011;8915;51.760;14.300;2023-08-21T09:13:08;6.70;;;5.65;;
17592;SDS011;8915;51.760;14.300;2023-08-21T09:15:35;7.03;;;5.43;;
17592;SDS011;8915;51.760;14.300;2023-08-21T09:18:02;8.90;;;5.22;;
17592;SDS011;8915;51.760;14.300;2023-08-21T09:20:32;9.02;;;6.15;;
17592;SDS011;8915;51.760;14.300;2023-08-21T09:23:00;11.52;;;6.18;;
17592;SDS011;8915;51.760;14.300;2023-08-21T09:25:28;7.18;;;6.10;;
17592;SDS011;8915;51.760;14.300;2023-08-21T09:28:01;8.50;;;5.78;;
17592;SDS011;8915;51.760;14.300;2023-08-21T09:30:32;6.82;;;6.13;;
17592;SDS011;8915;51.760;14.300;2023-08-21T09:33:10;7.68;;;6.88;;
17592;SDS011;8915;51.760;14.300;2023-08-21T09:35:36;8.10;;;7.15;;
17592;SDS011;8915;51.760;14.300;2023-08-21T09:38:02;7.88;;;6.97;;
17592;SDS011;8915;51.760;14.300;2023-08-21T09:40:31;9.45;;;7.38;;
17592;SDS011;8915;51.760;14.300;2023-08-21T09:42:57;10.00;;;7.97;;
17592;SDS011;8915;51.760;14.300;2023-08-21T09:45:24;9.52;;;8.50;;
17592;SDS011;8915;51.760;14.300;2023-08-21T09:47:51;11.00;;;7.50;;
17592;SDS011;8915;51.760;14.300;2023-08-21T09:50:18;8.73;;;7.72;;
17592;SDS011;8915;51.760;14.300;2023-08-21T09:52:45;9.25;;;7.60;;
17592;SDS011;8915;51.760;14.300;2023-08-21T09:55:12;8.68;;;7.78;;
17592;SDS011;8915;51.760;14.300;2023-08-21T09:57:41;9.68;;;7.80;;
17592;SDS011;8915;51.760;14.300;2023-08-21T10:00:08;9.43;;;7.50;;
17592;SDS011;8915;51.760;14.300;2023-08-21T10:02:40;10.07;;;8.30;;
17592;SDS011;8915;51.760;14.300;2023-08-21T10:05:10;11.18;;;8.02;;
17592;SDS011;8915;51.760;14.300;2023-08-21T10:07:38;10.15;;;8.70;;
17592;SDS011;8915;51.760;14.300;2023-08-21T10:10:05;11.07;;;8.68;;
17592;SDS011;8915;51.760;14.300;2023-08-21T10:12:32;10.13;;;9.05;;
17592;SDS011;8915;51.760;14.300;2023-08-21T10:15:00;10.18;;;8.43;;
17592;SDS011;8915;51.760;14.300;2023-08-21T10:17:27;10.88;;;8.23;;
17592;SDS011;8915;51.760;14.300;2023-08-21T10:19:53;11.02;;;8.77;;
17592;SDS011;8915;51.760;14.300;2023-08-21T10:22:37;9.70;;;8.70;;
17592;SDS011;8915;51.760;14.300;2023-08-21T10:25:10;10.32;;;9.23;;
17592;SDS011;8915;51.760;14.300;2023-08-21T10:27:40;9.93;;;8.68;;
17592;SDS011;8915;51.760;14.300;2023-08-21T10:30:12;10.20;;;8.52;;
17592;SDS011;8915;51.760;14.300;2023-08-21T10:32:45;12.52;;;8.40;;
17592;SDS011;8915;51.760;14.300;2023-08-21T10:35:15;10.23;;;9.10;;
17592;SDS011;8915;51.760;14.300;2023-08-21T10:40:33;12.52;;;8.95;;
17592;SDS011;8915;51.760;14.300;2023-08-21T10:43:00;11.05;;;9.88;;
17592;SDS011;8915;51.760;14.300;2023-08-21T10:45:28;10.18;;;9.07;;
17592;SDS011;8915;51.760;14.300;2023-08-21T10:47:56;9.90;;;8.90;;
17592;SDS011;8915;51.760;14.300;2023-08-21T10:50:23;12.57;;;9.02;;
17592;SDS011;8915;51.760;14.300;2023-08-21T10:52:50;11.70;;;9.00;;
17592;SDS011;8915;51.760;14.300;2023-08-21T10:55:17;11.93;;;9.80;;
17592;SDS011;8915;51.760;14.300;2023-08-21T10:57:45;11.70;;;9.90;;
17592;SDS011;8915;51.760;14.300;2023-08-21T11:00:13;13.43;;;10.05;;
17592;SDS011;8915;51.760;14.300;2023-08-21T11:02:43;12.18;;;9.88;;
17592;SDS011;8915;51.760;14.300;2023-08-21T11:05:11;11.90;;;9.98;;
17592;SDS011;8915;51.760;14.300;2023-08-21T11:07:38;11.52;;;9.70;;
17592;SDS011;8915;51.760;14.300;2023-08-21T11:10:06;11.27;;;10.07;;
17592;SDS011;8915;51.760;14.300;2023-08-21T11:12:33;11.13;;;9.65;;
17592;SDS011;8915;51.760;14.300;2023-08-21T11:15:00;12.45;;;10.23;;
17592;SDS011;8915;51.760;14.300;2023-08-21T11:17:26;13.68;;;9.50;;
17592;SDS011;8915;51.760;14.300;2023-08-21T11:19:54;11.38;;;10.15;;
17592;SDS011;8915;51.760;14.300;2023-08-21T11:22:28;10.13;;;9.13;;
17592;SDS011;8915;51.760;14.300;2023-08-21T11:24:55;10.35;;;9.27;;
17592;SDS011;8915;51.760;14.300;2023-08-21T11:27:21;11.75;;;9.63;;
17592;SDS011;8915;51.760;14.300;2023-08-21T11:29:48;9.32;;;8.43;;
17592;SDS011;8915;51.760;14.300;2023-08-21T11:32:17;9.45;;;7.57;;
17592;SDS011;8915;51.760;14.300;2023-08-21T11:34:47;8.27;;;6.43;;
17592;SDS011;8915;51.760;14.300;2023-08-21T11:37:17;7.20;;;6.20;;
17592;SDS011;8915;51.760;14.300;2023-08-21T11:39:45;7.97;;;7.15;;
17592;SDS011;8915;51.760;14.300;2023-08-21T11:42:14;9.20;;;7.35;;
17592;SDS011;8915;51.760;14.300;2023-08-21T11:44:46;7.95;;;7.13;;
17592;SDS011;8915;51.760;14.300;2023-08-21T11:47:14;5.93;;;5.32;;
17592;SDS011;8915;51.760;14.300;2023-08-21T11:49:42;6.35;;;5.18;;
17592;SDS011;8915;51.760;14.300;2023-08-21T11:52:09;6.20;;;5.60;;
17592;SDS011;8915;51.760;14.300;2023-08-21T11:54:38;7.43;;;6.55;;
17592;SDS011;8915;51.760;14.300;2023-08-21T11:57:06;8.52;;;7.13;;
17592;SDS011;8915;51.760;14.300;2023-08-21T11:59:34;9.02;;;7.45;;
17592;SDS011;8915;51.760;14.300;2023-08-21T12:02:01;8.32;;;7.40;;
17592;SDS011;8915;51.760;14.300;2023-08-21T12:04:35;8.93;;;8.00;;
17592;SDS011;8915;51.760;14.300;2023-08-21T12:07:01;8.90;;;7.15;;
17592;SDS011;8915;51.760;14.300;2023-08-21T12:09:28;7.72;;;6.93;;
17592;SDS011;8915;51.760;14.300;2023-08-21T12:11:56;7.53;;;6.55;;
17592;SDS011;8915;51.760;14.300;2023-08-21T12:14:22;7.68;;;6.90;;
17592;SDS011;8915;51.760;14.300;2023-08-21T12:16:48;7.50;;;6.68;;
17592;SDS011;8915;51.760;14.300;2023-08-21T12:19:15;7.47;;;6.53;;
17592;SDS011;8915;51.760;14.300;2023-08-21T12:21:41;7.15;;;5.82;;
17592;SDS011;8915;51.760;14.300;2023-08-21T12:24:08;6.80;;;6.10;;
17592;SDS011;8915;51.760;14.300;2023-08-21T12:26:34;6.65;;;5.65;;
17592;SDS011;8915;51.760;14.300;2023-08-21T12:29:02;6.38;;;5.78;;
17592;SDS011;8915;51.760;14.300;2023-08-21T12:31:28;6.05;;;5.40;;
17592;SDS011;8915;51.760;14.300;2023-08-21T12:33:55;8.32;;;5.85;;
17592;SDS011;8915;51.760;14.300;2023-08-21T12:36:21;5.80;;;5.15;;
17592;SDS011;8915;51.760;14.300;2023-08-21T12:38:48;6.93;;;5.70;;
17592;SDS011;8915;51.760;14.300;2023-08-21T12:41:14;6.20;;;5.60;;
17592;SDS011;8915;51.760;14.300;2023-08-21T12:43:40;7.00;;;5.88;;
17592;SDS011;8915;51.760;14.300;2023-08-21T12:46:08;6.50;;;5.28;;
17592;SDS011;8915;51.760;14.300;2023-08-21T12:48:35;6.60;;;5.57;;
17592;SDS011;8915;51.760;14.300;2023-08-21T12:51:01;6.35;;;5.18;;
17592;SDS011;8915;51.760;14.300;2023-08-21T12:53:28;5.82;;;5.18;;
17592;SDS011;8915;51.760;14.300;2023-08-21T12:55:54;7.78;;;5.55;;
17592;SDS011;8915;51.760;14.300;2023-08-21T12:58:21;7.10;;;5.10;;
17592;SDS011;8915;51.760;14.300;2023-08-21T13:00:47;5.60;;;5.03;;
17592;SDS011;8915;51.760;14.300;2023-08-21T13:03:15;6.03;;;4.80;;
17592;SDS011;8915;51.760;14.300;2023-08-21T13:05:41;6.15;;;4.80;;
17592;SDS011;8915;51.760;14.300;2023-08-21T13:08:08;8.13;;;5.00;;
17592;SDS011;8915;51.760;14.300;2023-08-21T13:10:34;6.95;;;5.00;;
17592;SDS011;8915;51.760;14.300;2023-08-21T13:13:00;4.95;;;4.38;;
17592;SDS011;8915;51.760;14.300;2023-08-21T13:15:27;6.35;;;4.50;;
17592;SDS011;8915;51.760;14.300;2023-08-21T13:17:54;6.43;;;4.25;;
17592;SDS011;8915;51.760;14.300;2023-08-21T13:20:22;6.25;;;3.72;;
17592;SDS011;8915;51.760;14.300;2023-08-21T13:22:49;5.75;;;3.85;;
17592;SDS011;8915;51.760;14.300;2023-08-21T13:25:17;4.28;;;3.75;;
17592;SDS011;8915;51.760;14.300;2023-08-21T13:27:44;5.35;;;3.78;;
17592;SDS011;8915;51.760;14.300;2023-08-21T13:30:12;4.20;;;3.20;;
17592;SDS011;8915;51.760;14.300;2023-08-21T13:32:39;6.93;;;3.92;;
17592;SDS011;8915;51.760;14.300;2023-08-21T13:35:05;3.60;;;3.30;;
17592;SDS011;8915;51.760;14.300;2023-08-21T13:37:35;5.28;;;3.80;;
17592;SDS011;8915;51.760;14.300;2023-08-21T13:40:02;5.43;;;3.63;;
17592;SDS011;8915;51.760;14.300;2023-08-21T13:42:35;5.07;;;3.83;;
17592;SDS011;8915;51.760;14.300;2023-08-21T13:45:03;3.88;;;3.22;;
17592;SDS011;8915;51.760;14.300;2023-08-21T13:47:30;4.28;;;3.30;;
17592;SDS011;8915;51.760;14.300;2023-08-21T13:49:56;3.83;;;3.47;;
17592;SDS011;8915;51.760;14.300;2023-08-21T13:52:22;5.28;;;3.40;;
17592;SDS011;8915;51.760;14.300;2023-08-21T13:54:50;5.22;;;3.63;;
17592;SDS011;8915;51.760;14.300;2023-08-21T13:57:16;5.13;;;3.20;;
17592;SDS011;8915;51.760;14.300;2023-08-21T13:59:43;3.70;;;3.30;;
17592;SDS011;8915;51.760;14.300;2023-08-21T14:02:09;4.07;;;3.22;;
17592;SDS011;8915;51.760;14.300;2023-08-21T14:04:35;3.80;;;3.40;;
17592;SDS011;8915;51.760;14.300;2023-08-21T14:07:02;3.97;;;3.42;;
17592;SDS011;8915;51.760;14.300;2023-08-21T14:09:28;3.30;;;3.00;;
17592;SDS011;8915;51.760;14.300;2023-08-21T14:11:56;4.55;;;3.08;;
17592;SDS011;8915;51.760;14.300;2023-08-21T14:14:22;4.00;;;3.35;;
17592;SDS011;8915;51.760;14.300;2023-08-21T14:16:48;3.55;;;2.88;;
17592;SDS011;8915;51.760;14.300;2023-08-21T14:19:15;3.22;;;2.78;;
17592;SDS011;8915;51.760;14.300;2023-08-21T14:21:41;4.38;;;3.13;;
17592;SDS011;8915;51.760;14.300;2023-08-21T14:24:08;3.65;;;2.95;;
17592;SDS011;8915;51.760;14.300;2023-08-21T14:26:34;3.42;;;2.58;;
17592;SDS011;8915;51.760;14.300;2023-08-21T14:29:02;2.85;;;2.50;;
17592;SDS011;8915;51.760;14.300;2023-08-21T14:31:28;4.80;;;2.90;;
17592;SDS011;8915;51.760;14.300;2023-08-21T14:33:55;5.35;;;2.80;;
17592;SDS011;8915;51.760;14.300;2023-08-21T14:36:21;4.20;;;2.83;;
17592;SDS011;8915;51.760;14.300;2023-08-21T14:38:47;4.20;;;2.88;;
17592;SDS011;8915;51.760;14.300;2023-08-21T14:41:14;3.97;;;2.58;;
17592;SDS011;8915;51.760;14.300;2023-08-21T14:43:40;3.65;;;2.60;;
17592;SDS011;8915;51.760;14.300;2023-08-21T14:46:08;3.38;;;2.63;;
17592;SDS011;8915;51.760;14.300;2023-08-21T14:48:35;3.80;;;2.35;;